createdAt,value
2022-09-02T00:01:47.717Z,9.60
2022-09-02T00:04:50.990Z,9.88
2022-09-02T00:07:55.482Z,9.73
2022-09-02T00:11:01.188Z,10.00
2022-09-02T00:14:14.251Z,9.88
2022-09-02T00:17:19.013Z,10.30
2022-09-02T00:20:22.722Z,9.68
2022-09-02T00:23:27.398Z,10.32
2022-09-02T00:26:30.799Z,10.35
2022-09-02T00:29:34.197Z,11.00
2022-09-02T00:32:39.103Z,9.73
2022-09-02T00:35:43.039Z,9.77
2022-09-02T00:38:46.691Z,9.63
2022-09-02T00:41:50.246Z,9.80
2022-09-02T00:44:54.276Z,9.38
2022-09-02T00:47:58.963Z,9.95
2022-09-02T00:51:04.356Z,10.35
2022-09-02T00:54:11.694Z,9.48
2022-09-02T00:57:19.707Z,9.93
2022-09-02T01:00:25.289Z,9.82
2022-09-02T01:03:36.262Z,10.23
2022-09-02T01:06:40.027Z,10.77
2022-09-02T01:09:43.577Z,10.73
2022-09-02T01:12:47.505Z,10.00
2022-09-02T01:15:56.310Z,9.82
2022-09-02T01:19:04.915Z,10.20
2022-09-02T01:22:16.838Z,9.88
2022-09-02T01:25:23.357Z,9.98
2022-09-02T01:28:27.022Z,9.45
2022-09-02T01:31:30.505Z,9.90
2022-09-02T01:34:36.693Z,9.55
2022-09-02T01:37:42.244Z,9.43
2022-09-02T01:40:58.295Z,9.40
2022-09-02T01:44:01.857Z,10.00
2022-09-02T01:47:06.023Z,8.90
2022-09-02T01:50:11.410Z,8.27
2022-09-02T01:53:16.711Z,9.18
2022-09-02T01:56:20.162Z,9.55
2022-09-02T01:59:25.049Z,9.68
2022-09-02T02:02:29.840Z,9.82
2022-09-02T02:05:33.573Z,9.52
2022-09-02T02:08:40.096Z,9.82
2022-09-02T02:11:44.136Z,10.10
2022-09-02T02:14:49.740Z,9.38
2022-09-02T02:17:53.176Z,9.25
2022-09-02T02:20:56.528Z,8.77
2022-09-02T02:24:02.539Z,9.43
2022-09-02T02:27:06.202Z,9.80
2022-09-02T02:30:11.646Z,9.18
2022-09-02T02:33:15.250Z,9.75
2022-09-02T02:36:19.867Z,9.77
2022-09-02T02:39:24.807Z,10.10
2022-09-02T02:42:28.237Z,9.77
2022-09-02T02:45:31.918Z,8.93
2022-09-02T02:48:36.929Z,9.57
2022-09-02T02:51:41.195Z,9.50
2022-09-02T02:54:45.899Z,9.88
2022-09-02T02:57:49.436Z,9.13
2022-09-02T03:00:54.169Z,9.10
2022-09-02T03:03:58.083Z,9.60
2022-09-02T03:07:01.539Z,10.43
2022-09-02T03:10:09.461Z,10.00
2022-09-02T03:13:15.703Z,10.45
2022-09-02T03:16:22.052Z,9.23
2022-09-02T03:19:25.382Z,9.80
2022-09-02T03:22:29.633Z,9.88
2022-09-02T03:25:36.255Z,9.73
2022-09-02T03:28:52.163Z,9.30
2022-09-02T03:31:56.261Z,9.73
2022-09-02T03:35:00.750Z,9.32
2022-09-02T03:38:04.106Z,8.95
2022-09-02T03:41:08.906Z,9.50
2022-09-02T03:44:12.967Z,9.18
2022-09-02T03:47:20.896Z,9.70
2022-09-02T03:50:32.607Z,9.75
2022-09-02T03:53:36.452Z,9.88
2022-09-02T03:56:41.259Z,9.13
2022-09-02T03:59:45.519Z,10.57
2022-09-02T04:02:50.135Z,10.35
2022-09-02T04:05:55.283Z,9.73
2022-09-02T04:09:01.070Z,9.80
2022-09-02T04:12:07.204Z,9.57
2022-09-02T04:15:13.709Z,9.95
2022-09-02T04:18:18.862Z,9.43
2022-09-02T04:21:22.293Z,9.40
2022-09-02T04:24:25.606Z,9.20
2022-09-02T04:27:30.906Z,9.38
2022-09-02T04:30:34.471Z,10.15
2022-09-02T04:33:39.421Z,10.05
2022-09-02T04:36:46.746Z,8.93
2022-09-02T04:39:50.400Z,11.15
2022-09-02T04:42:55.803Z,9.07
2022-09-02T04:46:01.706Z,9.02
2022-09-02T04:49:06.173Z,10.50
2022-09-02T04:52:10.695Z,8.93
2022-09-02T04:55:15.828Z,9.70
2022-09-02T04:58:21.122Z,9.50
2022-09-02T05:01:27.828Z,10.02
2022-09-02T05:04:34.438Z,8.70
2022-09-02T05:07:39.387Z,9.50
2022-09-02T05:10:44.055Z,9.80
2022-09-02T05:13:51.661Z,10.25
2022-09-02T05:16:57.318Z,10.00
2022-09-02T05:20:00.867Z,9.23
2022-09-02T05:23:04.255Z,10.02
2022-09-02T05:26:08.783Z,9.35
2022-09-02T05:29:15.587Z,9.85
2022-09-02T05:32:19.644Z,9.70
2022-09-02T05:35:25.021Z,10.25
2022-09-02T05:38:29.288Z,9.88
2022-09-02T05:41:33.946Z,9.73
2022-09-02T05:44:40.266Z,10.50
2022-09-02T05:47:44.544Z,12.05
2022-09-02T05:50:50.320Z,10.70
2022-09-02T05:54:02.879Z,11.20
2022-09-02T05:57:09.507Z,10.10
2022-09-02T06:00:18.110Z,10.38
2022-09-02T06:03:30.961Z,10.05
2022-09-02T06:06:36.016Z,11.73
2022-09-02T06:09:41.182Z,10.30
2022-09-02T06:12:45.081Z,10.10
2022-09-02T06:15:51.501Z,10.35
2022-09-02T06:18:55.863Z,10.00
2022-09-02T06:22:00.083Z,10.52
2022-09-02T06:25:03.611Z,11.60
2022-09-02T06:28:08.035Z,12.52
2022-09-02T06:31:19.300Z,12.88
2022-09-02T06:34:26.988Z,11.85
2022-09-02T06:37:31.862Z,11.15
2022-09-02T06:40:35.874Z,10.13
2022-09-02T06:43:42.769Z,10.90
2022-09-02T06:47:07.435Z,9.60
2022-09-02T06:50:11.569Z,9.73
2022-09-02T06:53:15.235Z,9.70
2022-09-02T06:56:19.337Z,9.75
2022-09-02T06:59:23.840Z,10.32
2022-09-02T07:02:31.838Z,9.85
2022-09-02T07:05:34.972Z,9.23
2022-09-02T07:08:39.456Z,10.45
2022-09-02T07:11:43.533Z,9.80
2022-09-02T07:14:47.209Z,9.02
2022-09-02T07:17:57.427Z,9.35
2022-09-02T07:21:10.723Z,9.77
2022-09-02T07:24:16.758Z,10.52
2022-09-02T07:27:21.383Z,10.70
2022-09-02T07:30:26.693Z,9.43
2022-09-02T07:33:41.495Z,9.65
2022-09-02T07:36:46.848Z,9.05
2022-09-02T07:39:50.325Z,10.00
2022-09-02T07:42:54.822Z,10.27
2022-09-02T07:46:00.931Z,10.77
2022-09-02T07:49:09.738Z,10.65
2022-09-02T07:52:13.615Z,11.40
2022-09-02T07:55:18.095Z,11.55
2022-09-02T07:58:23.807Z,11.90
2022-09-02T08:01:28.685Z,11.00
2022-09-02T08:04:33.646Z,11.10
2022-09-02T08:07:41.785Z,14.35
2022-09-02T08:10:47.095Z,14.27
2022-09-02T08:13:50.468Z,14.55
2022-09-02T08:16:54.345Z,12.55
2022-09-02T08:19:59.585Z,12.75
2022-09-02T08:23:11.840Z,12.13
2022-09-02T08:26:22.222Z,11.05
2022-09-02T08:29:27.013Z,12.70
2022-09-02T08:32:32.927Z,14.00
2022-09-02T08:35:37.734Z,11.55
2022-09-02T08:38:41.257Z,11.40
2022-09-02T08:41:56.031Z,9.18
2022-09-02T08:45:06.160Z,10.43
2022-09-02T08:48:20.530Z,10.77
2022-09-02T08:51:37.331Z,15.82
2022-09-02T08:54:53.108Z,21.60
2022-09-02T08:57:57.409Z,13.90
2022-09-02T09:01:09.322Z,17.02
2022-09-02T09:04:34.279Z,18.60
2022-09-02T09:08:12.351Z,18.27
2022-09-02T09:11:38.631Z,14.30
2022-09-02T09:14:56.023Z,13.70
2022-09-02T09:18:17.108Z,14.27
2022-09-02T09:21:46.185Z,15.77
2022-09-02T09:24:51.864Z,14.35
2022-09-02T09:27:55.202Z,15.48
2022-09-02T09:31:01.742Z,19.00
2022-09-02T09:34:06.797Z,18.38
2022-09-02T09:37:10.164Z,19.17
2022-09-02T09:40:30.883Z,17.00
2022-09-02T09:43:34.233Z,17.40
2022-09-02T09:46:37.575Z,18.48
2022-09-02T09:49:40.855Z,17.40
2022-09-02T09:52:44.294Z,15.63
2022-09-02T09:55:57.675Z,11.82
2022-09-02T09:59:01.078Z,12.25
2022-09-02T10:02:04.733Z,11.32
2022-09-02T10:05:22.877Z,9.77
2022-09-02T10:08:33.793Z,9.90
2022-09-02T10:11:54.931Z,10.35
2022-09-02T10:15:01.556Z,9.88
2022-09-02T10:18:15.560Z,10.10
2022-09-02T10:21:36.275Z,9.85
2022-09-02T10:24:54.275Z,9.60
2022-09-02T10:28:17.117Z,9.77
2022-09-02T10:31:30.380Z,10.38
2022-09-02T10:34:41.395Z,10.88
2022-09-02T10:38:01.296Z,10.68
2022-09-02T10:41:27.873Z,10.88
2022-09-02T10:44:38.361Z,10.38
2022-09-02T10:47:41.913Z,10.82
2022-09-02T10:50:50.372Z,10.50
2022-09-02T10:54:09.740Z,10.40
2022-09-02T10:57:17.253Z,11.68
2022-09-02T11:00:25.734Z,11.95
2022-09-02T11:03:42.499Z,9.50
2022-09-02T11:07:04.078Z,10.50
2022-09-02T11:10:16.156Z,10.73
2022-09-02T11:13:26.946Z,10.70
2022-09-02T11:16:40.190Z,10.40
2022-09-02T11:19:55.516Z,10.18
2022-09-02T11:23:03.355Z,11.18
2022-09-02T11:26:30.921Z,7.72
2022-09-02T11:29:42.362Z,8.98
2022-09-02T11:32:55.079Z,8.65
2022-09-02T11:36:00.954Z,7.43
2022-09-02T11:39:09.547Z,8.05
2022-09-02T11:42:28.727Z,9.20
2022-09-02T11:45:49.312Z,9.38
2022-09-02T11:49:30.707Z,13.05
2022-09-02T11:52:50.763Z,13.00
2022-09-02T11:55:57.241Z,11.95
2022-09-02T11:59:00.551Z,12.95
2022-09-02T12:02:04.038Z,12.82
2022-09-02T12:05:44.711Z,13.10
2022-09-02T12:09:05.707Z,13.32
2022-09-02T12:12:10.480Z,12.85
2022-09-02T12:15:22.037Z,9.60
2022-09-02T12:18:33.443Z,10.20
2022-09-02T12:21:39.102Z,9.82
2022-09-02T12:24:52.650Z,9.95
2022-09-02T12:28:19.148Z,9.15
2022-09-02T12:32:09.417Z,9.80
2022-09-02T12:36:05.469Z,9.65
2022-09-02T12:40:01.055Z,11.43
2022-09-02T12:43:49.718Z,9.93
2022-09-02T12:47:32.621Z,10.57
2022-09-02T12:50:56.576Z,9.95
2022-09-02T12:54:00.466Z,9.93
2022-09-02T12:57:05.888Z,9.05
2022-09-02T13:00:14.081Z,8.65
2022-09-02T13:03:37.440Z,8.75
2022-09-02T13:07:11.566Z,9.88
2022-09-02T13:10:56.883Z,8.15
2022-09-02T13:14:36.410Z,9.77
2022-09-02T13:18:12.328Z,9.30
2022-09-02T13:21:49.466Z,10.15
2022-09-02T13:25:23.395Z,9.80
2022-09-02T13:29:13.577Z,9.88
2022-09-02T13:32:24.460Z,10.20
2022-09-02T13:35:29.628Z,11.77
2022-09-02T13:38:34.813Z,11.45
2022-09-02T13:41:38.644Z,12.18
2022-09-02T13:44:42.024Z,13.43
2022-09-02T13:47:48.330Z,13.90
2022-09-02T13:50:54.409Z,12.05
2022-09-02T13:54:22.202Z,13.27
2022-09-02T13:57:26.340Z,11.27
2022-09-02T14:00:34.673Z,12.00
2022-09-02T14:03:39.046Z,15.43
2022-09-02T14:06:45.828Z,25.02
2022-09-02T14:09:51.358Z,22.13
2022-09-02T14:12:56.258Z,20.20
2022-09-02T14:16:33.542Z,15.73
2022-09-02T14:19:37.057Z,15.07
2022-09-02T14:22:40.627Z,14.30
2022-09-02T14:25:53.027Z,14.80
2022-09-02T14:28:56.786Z,13.77
2022-09-02T14:32:15.115Z,13.75
2022-09-02T14:35:24.031Z,12.88
2022-09-02T14:38:28.875Z,12.23
2022-09-02T14:41:37.299Z,12.02
2022-09-02T14:44:40.851Z,12.90
2022-09-02T14:47:44.174Z,13.32
2022-09-02T14:50:47.679Z,14.98
2022-09-02T14:53:51.065Z,15.90
2022-09-02T14:56:55.762Z,15.88
2022-09-02T15:00:00.435Z,15.02
2022-09-02T15:03:03.779Z,13.85
2022-09-02T15:06:09.885Z,13.25
2022-09-02T15:09:17.376Z,14.52
2022-09-02T15:12:25.748Z,14.73
2022-09-02T15:15:29.184Z,12.73
2022-09-02T15:18:32.525Z,15.15
2022-09-02T15:21:35.839Z,15.88
2022-09-02T15:24:39.179Z,17.20
2022-09-02T15:27:43.874Z,18.25
2022-09-02T15:30:47.318Z,20.17
2022-09-02T15:33:52.252Z,18.48
2022-09-02T15:36:57.444Z,19.42
2022-09-02T15:40:01.037Z,18.08
2022-09-02T15:43:05.942Z,17.40
2022-09-02T15:46:21.816Z,15.90
2022-09-02T15:49:25.360Z,15.13
2022-09-02T15:52:28.720Z,14.18
2022-09-02T15:55:33.660Z,15.15
2022-09-02T15:58:38.320Z,15.27
2022-09-02T16:01:44.399Z,16.42
2022-09-02T16:04:47.909Z,14.90
2022-09-02T16:07:52.245Z,15.25
2022-09-02T16:10:55.569Z,15.60
2022-09-02T16:14:00.335Z,15.38
2022-09-02T16:17:03.703Z,15.32
2022-09-02T16:20:07.758Z,14.75
2022-09-02T16:23:11.031Z,15.13
2022-09-02T16:26:16.867Z,19.50
2022-09-02T16:29:21.656Z,17.25
2022-09-02T16:32:27.798Z,16.85
2022-09-02T16:35:31.317Z,14.63
2022-09-02T16:38:35.769Z,12.40
2022-09-02T16:41:42.258Z,13.00
2022-09-02T16:44:47.030Z,13.63
2022-09-02T16:47:54.968Z,13.63
2022-09-02T16:51:03.359Z,11.27
2022-09-02T16:54:07.044Z,10.77
2022-09-02T16:57:10.453Z,12.15
2022-09-02T17:00:17.132Z,11.35
2022-09-02T17:03:20.452Z,11.77
2022-09-02T17:06:23.810Z,13.38
2022-09-02T17:09:27.159Z,20.00
2022-09-02T17:12:30.633Z,38.28
2022-09-02T17:15:35.373Z,16.80
2022-09-02T17:18:38.728Z,13.55
2022-09-02T17:21:44.166Z,13.02
2022-09-02T17:24:51.730Z,12.57
2022-09-02T17:27:56.921Z,12.93
2022-09-02T17:31:05.529Z,10.98
2022-09-02T17:34:10.719Z,11.43
2022-09-02T17:37:14.221Z,12.32
2022-09-02T17:40:31.392Z,12.65
2022-09-02T17:43:38.449Z,11.70
2022-09-02T17:46:44.549Z,11.35
2022-09-02T17:49:49.036Z,11.70
2022-09-02T17:52:52.489Z,11.82
2022-09-02T17:56:06.044Z,11.90
2022-09-02T17:59:19.901Z,12.07
2022-09-02T18:02:57.809Z,11.32
2022-09-02T18:06:12.829Z,10.93
2022-09-02T18:09:20.098Z,10.75
2022-09-02T18:12:24.701Z,12.18
2022-09-02T18:15:28.359Z,10.55
2022-09-02T18:18:33.608Z,11.38
2022-09-02T18:21:49.033Z,12.38
2022-09-02T18:25:03.453Z,12.93
2022-09-02T18:28:17.339Z,13.38
2022-09-02T18:31:35.792Z,13.40
2022-09-02T18:34:52.462Z,11.70
2022-09-02T18:38:06.072Z,12.48
2022-09-02T18:41:23.588Z,14.18
2022-09-02T18:44:36.505Z,13.13
2022-09-02T18:47:45.764Z,13.30
2022-09-02T18:50:54.851Z,13.57
2022-09-02T18:54:03.046Z,13.73
2022-09-02T18:57:09.372Z,13.35
2022-09-02T19:00:16.548Z,12.73
2022-09-02T19:03:20.821Z,11.40
2022-09-02T19:06:34.255Z,11.52
2022-09-02T19:09:36.932Z,11.65
2022-09-02T19:12:40.608Z,11.00
2022-09-02T19:15:43.934Z,9.93
2022-09-02T19:18:47.377Z,9.20
2022-09-02T19:21:55.403Z,9.18
2022-09-02T19:25:03.372Z,8.38
2022-09-02T19:28:07.263Z,8.95
2022-09-02T19:31:18.190Z,9.23
2022-09-02T19:34:22.761Z,9.18
2022-09-02T19:37:27.718Z,8.30
2022-09-02T19:40:33.729Z,8.40
2022-09-02T19:43:40.919Z,8.82
2022-09-02T19:47:30.716Z,9.43
2022-09-02T19:50:08.610Z,10.35
2022-09-02T19:53:19.284Z,11.10
2022-09-02T19:56:22.672Z,11.18
2022-09-02T19:59:26.798Z,9.88
2022-09-02T20:02:30.264Z,10.25
2022-09-02T20:05:33.863Z,10.40
2022-09-02T20:08:38.627Z,9.18
2022-09-02T20:11:41.919Z,9.93
2022-09-02T20:14:45.797Z,10.52
2022-09-02T20:17:50.913Z,9.73
2022-09-02T20:20:56.099Z,9.43
2022-09-02T20:24:06.528Z,9.60
2022-09-02T20:27:19.859Z,9.70
2022-09-02T20:30:23.339Z,9.48
2022-09-02T20:33:35.110Z,11.13
2022-09-02T20:36:47.654Z,13.25
2022-09-02T20:40:13.753Z,12.73
2022-09-02T20:43:35.214Z,11.32
2022-09-02T20:46:56.205Z,10.73
2022-09-02T20:50:13.906Z,10.50
2022-09-02T20:53:42.756Z,10.77
2022-09-02T20:56:53.014Z,9.82
2022-09-02T21:00:04.971Z,9.02
2022-09-02T21:03:12.248Z,10.20
2022-09-02T21:06:15.982Z,9.65
2022-09-02T21:09:29.134Z,10.10
2022-09-02T21:12:40.973Z,10.15
2022-09-02T21:15:49.264Z,10.48
2022-09-02T21:19:02.091Z,9.48
2022-09-02T21:22:10.507Z,9.23
2022-09-02T21:25:18.270Z,11.57
2022-09-02T21:28:30.191Z,11.20
2022-09-02T21:31:36.977Z,11.55
2022-09-02T21:34:45.940Z,12.20
2022-09-02T21:37:54.804Z,13.32
2022-09-02T21:41:12.663Z,12.02
2022-09-02T21:44:24.731Z,11.55
2022-09-02T21:47:36.814Z,12.32
2022-09-02T21:50:46.698Z,13.38
2022-09-02T21:54:02.063Z,12.70
2022-09-02T21:57:40.018Z,13.85
2022-09-02T22:00:50.125Z,15.30
2022-09-02T22:04:04.110Z,14.77
2022-09-02T22:07:19.102Z,15.55
2022-09-02T22:10:32.949Z,16.48
2022-09-02T22:13:40.268Z,15.88
2022-09-02T22:16:54.736Z,15.52
2022-09-02T22:20:02.756Z,15.95
2022-09-02T22:23:14.977Z,15.60
2022-09-02T22:26:29.012Z,15.43
2022-09-02T22:29:38.924Z,14.57
2022-09-02T22:32:46.138Z,15.38
2022-09-02T22:35:56.350Z,16.13
2022-09-02T22:39:32.716Z,16.63
2022-09-02T22:42:38.013Z,16.23
2022-09-02T22:46:04.515Z,14.82
2022-09-02T22:49:32.553Z,14.57
2022-09-02T22:52:49.310Z,16.13
2022-09-02T22:56:02.405Z,15.05
2022-09-02T22:59:26.825Z,16.38
2022-09-02T23:02:36.329Z,15.48
2022-09-02T23:05:53.264Z,15.07
2022-09-02T23:08:57.355Z,14.23
2022-09-02T23:12:08.870Z,13.88
2022-09-02T23:15:24.787Z,14.88
2022-09-02T23:18:52.682Z,13.05
2022-09-02T23:22:05.836Z,14.20
2022-09-02T23:25:30.327Z,13.07
2022-09-02T23:28:43.640Z,14.18
2022-09-02T23:32:00.776Z,13.32
2022-09-02T23:35:17.669Z,13.82
2022-09-02T23:38:45.653Z,14.80
2022-09-02T23:41:48.980Z,13.20
2022-09-02T23:44:52.413Z,13.50
2022-09-02T23:48:11.891Z,14.02
2022-09-02T23:51:19.593Z,14.32
2022-09-02T23:54:47.520Z,13.60
2022-09-02T23:58:07.151Z,13.75
